sensor_id;sensor_type;location;lat;lon;timestamp;P1;durP1;ratioP1;P2;durP2;ratioP2
84840;SDS011;75088;53.114;18.040;2024-01-25T00:00:47;9.50;;;1.50;;
84840;SDS011;75088;53.114;18.040;2024-01-25T00:02:14;7.70;;;2.60;;
84840;SDS011;75088;53.114;18.040;2024-01-25T00:03:21;5.80;;;1.30;;
84840;SDS011;75088;53.114;18.040;2024-01-25T00:04:28;7.00;;;2.60;;
84840;SDS011;75088;53.114;18.040;2024-01-25T00:05:34;8.00;;;1.90;;
84840;SDS011;75088;53.114;18.040;2024-01-25T00:06:41;7.20;;;1.90;;
84840;SDS011;75088;53.114;18.040;2024-01-25T00:07:48;5.80;;;1.30;;
84840;SDS011;75088;53.114;18.040;2024-01-25T00:08:55;5.00;;;1.30;;
84840;SDS011;75088;53.114;18.040;2024-01-25T00:10:02;7.60;;;1.50;;
84840;SDS011;75088;53.114;18.040;2024-01-25T00:11:11;8.70;;;1.80;;
84840;SDS011;75088;53.114;18.040;2024-01-25T00:12:18;8.10;;;1.80;;
84840;SDS011;75088;53.114;18.040;2024-01-25T00:13:25;9.20;;;2.40;;
84840;SDS011;75088;53.114;18.040;2024-01-25T00:14:32;9.60;;;1.80;;
84840;SDS011;75088;53.114;18.040;2024-01-25T00:15:39;7.20;;;1.80;;
84840;SDS011;75088;53.114;18.040;2024-01-25T00:16:46;6.80;;;1.80;;
84840;SDS011;75088;53.114;18.040;2024-01-25T00:17:53;9.90;;;1.90;;
84840;SDS011;75088;53.114;18.040;2024-01-25T00:19:01;7.00;;;1.70;;
84840;SDS011;75088;53.114;18.040;2024-01-25T00:20:08;7.60;;;1.70;;
84840;SDS011;75088;53.114;18.040;2024-01-25T00:21:16;10.30;;;2.10;;
84840;SDS011;75088;53.114;18.040;2024-01-25T00:22:23;6.70;;;1.60;;
84840;SDS011;75088;53.114;18.040;2024-01-25T00:23:30;7.00;;;1.80;;
84840;SDS011;75088;53.114;18.040;2024-01-25T00:24:37;9.60;;;1.70;;
84840;SDS011;75088;53.114;18.040;2024-01-25T00:25:44;7.40;;;1.80;;
84840;SDS011;75088;53.114;18.040;2024-01-25T00:26:52;9.90;;;2.50;;
84840;SDS011;75088;53.114;18.040;2024-01-25T00:27:59;7.80;;;1.70;;
84840;SDS011;75088;53.114;18.040;2024-01-25T00:29:06;12.10;;;1.80;;
84840;SDS011;75088;53.114;18.040;2024-01-25T00:30:13;9.50;;;2.10;;
84840;SDS011;75088;53.114;18.040;2024-01-25T00:31:20;9.70;;;2.20;;
84840;SDS011;75088;53.114;18.040;2024-01-25T00:32:27;9.90;;;1.80;;
84840;SDS011;75088;53.114;18.040;2024-01-25T00:33:34;9.70;;;2.20;;
84840;SDS011;75088;53.114;18.040;2024-01-25T00:34:41;9.60;;;2.00;;
84840;SDS011;75088;53.114;18.040;2024-01-25T00:35:49;10.10;;;2.90;;
84840;SDS011;75088;53.114;18.040;2024-01-25T00:36:57;9.00;;;2.30;;
84840;SDS011;75088;53.114;18.040;2024-01-25T00:38:05;10.10;;;2.20;;
84840;SDS011;75088;53.114;18.040;2024-01-25T00:39:13;7.40;;;2.20;;
84840;SDS011;75088;53.114;18.040;2024-01-25T00:40:21;7.10;;;2.30;;
84840;SDS011;75088;53.114;18.040;2024-01-25T00:41:29;9.50;;;2.30;;
84840;SDS011;75088;53.114;18.040;2024-01-25T00:42:41;11.20;;;2.60;;
84840;SDS011;75088;53.114;18.040;2024-01-25T00:43:50;13.20;;;2.70;;
84840;SDS011;75088;53.114;18.040;2024-01-25T00:44:57;10.40;;;1.80;;
84840;SDS011;75088;53.114;18.040;2024-01-25T00:46:05;14.30;;;2.50;;
84840;SDS011;75088;53.114;18.040;2024-01-25T00:47:14;10.20;;;2.10;;
84840;SDS011;75088;53.114;18.040;2024-01-25T00:48:22;9.20;;;2.40;;
84840;SDS011;75088;53.114;18.040;2024-01-25T00:49:30;7.70;;;2.00;;
84840;SDS011;75088;53.114;18.040;2024-01-25T00:50:38;10.10;;;2.40;;
84840;SDS011;75088;53.114;18.040;2024-01-25T00:51:46;10.90;;;2.10;;
84840;SDS011;75088;53.114;18.040;2024-01-25T00:52:56;10.70;;;2.30;;
84840;SDS011;75088;53.114;18.040;2024-01-25T00:54:03;10.70;;;2.30;;
84840;SDS011;75088;53.114;18.040;2024-01-25T00:55:12;8.50;;;1.80;;
84840;SDS011;75088;53.114;18.040;2024-01-25T00:56:21;10.70;;;2.30;;
84840;SDS011;75088;53.114;18.040;2024-01-25T00:57:28;7.70;;;1.90;;
84840;SDS011;75088;53.114;18.040;2024-01-25T00:58:36;7.40;;;2.00;;
84840;SDS011;75088;53.114;18.040;2024-01-25T00:59:44;12.00;;;2.40;;
84840;SDS011;75088;53.114;18.040;2024-01-25T01:00:52;8.20;;;1.90;;
84840;SDS011;75088;53.114;18.040;2024-01-25T01:01:59;13.00;;;2.60;;
84840;SDS011;75088;53.114;18.040;2024-01-25T01:03:09;7.80;;;1.80;;
84840;SDS011;75088;53.114;18.040;2024-01-25T01:04:19;8.00;;;1.70;;
84840;SDS011;75088;53.114;18.040;2024-01-25T01:05:27;6.30;;;2.10;;
84840;SDS011;75088;53.114;18.040;2024-01-25T01:06:35;7.00;;;1.80;;
84840;SDS011;75088;53.114;18.040;2024-01-25T01:07:44;10.30;;;2.10;;
84840;SDS011;75088;53.114;18.040;2024-01-25T01:08:52;6.60;;;1.70;;
84840;SDS011;75088;53.114;18.040;2024-01-25T01:09:59;7.80;;;1.80;;
84840;SDS011;75088;53.114;18.040;2024-01-25T01:11:07;8.80;;;1.50;;
84840;SDS011;75088;53.114;18.040;2024-01-25T01:12:14;8.40;;;2.10;;
84840;SDS011;75088;53.114;18.040;2024-01-25T01:13:21;8.50;;;1.90;;
84840;SDS011;75088;53.114;18.040;2024-01-25T01:14:28;7.20;;;1.50;;
84840;SDS011;75088;53.114;18.040;2024-01-25T01:15:35;6.60;;;2.30;;
84840;SDS011;75088;53.114;18.040;2024-01-25T01:16:42;9.00;;;1.60;;
84840;SDS011;75088;53.114;18.040;2024-01-25T01:17:49;7.60;;;1.30;;
84840;SDS011;75088;53.114;18.040;2024-01-25T01:18:56;7.60;;;2.00;;
84840;SDS011;75088;53.114;18.040;2024-01-25T01:20:09;5.80;;;1.50;;
84840;SDS011;75088;53.114;18.040;2024-01-25T01:21:17;8.70;;;2.50;;
84840;SDS011;75088;53.114;18.040;2024-01-25T01:22:25;6.50;;;1.60;;
84840;SDS011;75088;53.114;18.040;2024-01-25T01:23:32;8.40;;;1.80;;
84840;SDS011;75088;53.114;18.040;2024-01-25T01:24:39;7.70;;;1.40;;
84840;SDS011;75088;53.114;18.040;2024-01-25T01:25:46;8.30;;;1.80;;
84840;SDS011;75088;53.114;18.040;2024-01-25T01:26:53;13.10;;;2.40;;
84840;SDS011;75088;53.114;18.040;2024-01-25T01:28:00;8.20;;;1.80;;
84840;SDS011;75088;53.114;18.040;2024-01-25T01:29:07;13.00;;;2.30;;
84840;SDS011;75088;53.114;18.040;2024-01-25T01:30:14;7.40;;;1.80;;
84840;SDS011;75088;53.114;18.040;2024-01-25T01:31:21;7.50;;;1.80;;
84840;SDS011;75088;53.114;18.040;2024-01-25T01:32:28;8.50;;;1.90;;
84840;SDS011;75088;53.114;18.040;2024-01-25T01:33:35;8.50;;;2.00;;
84840;SDS011;75088;53.114;18.040;2024-01-25T01:34:41;10.20;;;1.70;;
84840;SDS011;75088;53.114;18.040;2024-01-25T01:35:48;10.70;;;1.70;;
84840;SDS011;75088;53.114;18.040;2024-01-25T01:36:55;19.80;;;2.20;;
84840;SDS011;75088;53.114;18.040;2024-01-25T01:38:02;10.00;;;1.80;;
84840;SDS011;75088;53.114;18.040;2024-01-25T01:39:09;9.00;;;1.70;;
84840;SDS011;75088;53.114;18.040;2024-01-25T01:40:16;10.60;;;1.80;;
84840;SDS011;75088;53.114;18.040;2024-01-25T01:41:23;8.80;;;2.00;;
84840;SDS011;75088;53.114;18.040;2024-01-25T01:42:30;6.10;;;1.80;;
84840;SDS011;75088;53.114;18.040;2024-01-25T01:43:38;7.10;;;1.90;;
84840;SDS011;75088;53.114;18.040;2024-01-25T01:44:45;10.10;;;1.90;;
84840;SDS011;75088;53.114;18.040;2024-01-25T01:45:52;7.20;;;1.50;;
84840;SDS011;75088;53.114;18.040;2024-01-25T01:47:05;9.70;;;1.90;;
84840;SDS011;75088;53.114;18.040;2024-01-25T01:48:12;11.50;;;1.90;;
84840;SDS011;75088;53.114;18.040;2024-01-25T01:49:20;12.60;;;2.40;;
84840;SDS011;75088;53.114;18.040;2024-01-25T01:50:27;11.30;;;2.40;;
84840;SDS011;75088;53.114;18.040;2024-01-25T01:51:34;9.80;;;2.50;;
84840;SDS011;75088;53.114;18.040;2024-01-25T01:52:42;12.00;;;2.40;;
84840;SDS011;75088;53.114;18.040;2024-01-25T01:53:50;11.60;;;1.90;;
84840;SDS011;75088;53.114;18.040;2024-01-25T01:54:58;7.80;;;2.20;;
84840;SDS011;75088;53.114;18.040;2024-01-25T01:56:06;10.20;;;2.10;;
84840;SDS011;75088;53.114;18.040;2024-01-25T01:57:14;8.50;;;2.00;;
84840;SDS011;75088;53.114;18.040;2024-01-25T01:58:21;15.00;;;2.30;;
84840;SDS011;75088;53.114;18.040;2024-01-25T01:59:30;7.70;;;2.10;;
84840;SDS011;75088;53.114;18.040;2024-01-25T02:00:37;14.70;;;2.40;;
84840;SDS011;75088;53.114;18.040;2024-01-25T02:01:46;8.10;;;1.70;;
84840;SDS011;75088;53.114;18.040;2024-01-25T02:02:53;14.10;;;2.70;;
84840;SDS011;75088;53.114;18.040;2024-01-25T02:04:01;12.10;;;2.10;;
84840;SDS011;75088;53.114;18.040;2024-01-25T02:05:09;10.60;;;2.40;;
84840;SDS011;75088;53.114;18.040;2024-01-25T02:06:17;10.10;;;1.80;;
84840;SDS011;75088;53.114;18.040;2024-01-25T02:07:24;10.50;;;1.80;;
84840;SDS011;75088;53.114;18.040;2024-01-25T02:08:32;11.60;;;2.00;;
84840;SDS011;75088;53.114;18.040;2024-01-25T02:09:39;10.10;;;2.10;;
84840;SDS011;75088;53.114;18.040;2024-01-25T02:10:45;9.10;;;1.90;;
84840;SDS011;75088;53.114;18.040;2024-01-25T02:11:59;15.00;;;2.70;;
84840;SDS011;75088;53.114;18.040;2024-01-25T02:13:07;12.70;;;2.30;;
84840;SDS011;75088;53.114;18.040;2024-01-25T02:14:14;10.50;;;2.10;;
84840;SDS011;75088;53.114;18.040;2024-01-25T02:15:21;9.40;;;2.20;;
84840;SDS011;75088;53.114;18.040;2024-01-25T02:16:28;11.10;;;2.20;;
84840;SDS011;75088;53.114;18.040;2024-01-25T02:17:35;10.10;;;2.80;;
84840;SDS011;75088;53.114;18.040;2024-01-25T02:18:42;9.60;;;2.20;;
84840;SDS011;75088;53.114;18.040;2024-01-25T02:19:49;11.00;;;2.00;;
84840;SDS011;75088;53.114;18.040;2024-01-25T02:20:56;9.30;;;2.00;;
84840;SDS011;75088;53.114;18.040;2024-01-25T02:22:04;9.90;;;1.90;;
84840;SDS011;75088;53.114;18.040;2024-01-25T02:23:11;10.60;;;2.10;;
84840;SDS011;75088;53.114;18.040;2024-01-25T02:24:18;8.00;;;1.70;;
84840;SDS011;75088;53.114;18.040;2024-01-25T02:25:25;11.10;;;2.30;;
84840;SDS011;75088;53.114;18.040;2024-01-25T02:26:32;10.50;;;2.30;;
84840;SDS011;75088;53.114;18.040;2024-01-25T02:27:39;7.50;;;1.90;;
84840;SDS011;75088;53.114;18.040;2024-01-25T02:28:46;8.20;;;2.10;;
84840;SDS011;75088;53.114;18.040;2024-01-25T02:29:52;10.20;;;1.90;;
84840;SDS011;75088;53.114;18.040;2024-01-25T02:31:01;7.80;;;2.10;;
84840;SDS011;75088;53.114;18.040;2024-01-25T02:32:09;7.00;;;1.40;;
84840;SDS011;75088;53.114;18.040;2024-01-25T02:33:15;8.40;;;1.50;;
84840;SDS011;75088;53.114;18.040;2024-01-25T02:34:22;9.80;;;1.60;;
84840;SDS011;75088;53.114;18.040;2024-01-25T02:35:29;6.60;;;1.60;;
84840;SDS011;75088;53.114;18.040;2024-01-25T02:36:36;9.10;;;1.30;;
84840;SDS011;75088;53.114;18.040;2024-01-25T02:37:43;8.10;;;1.50;;
84840;SDS011;75088;53.114;18.040;2024-01-25T02:38:50;9.90;;;1.90;;
84840;SDS011;75088;53.114;18.040;2024-01-25T02:39:57;7.90;;;1.70;;
84840;SDS011;75088;53.114;18.040;2024-01-25T02:41:08;9.60;;;2.00;;
84840;SDS011;75088;53.114;18.040;2024-01-25T02:42:15;7.10;;;1.80;;
84840;SDS011;75088;53.114;18.040;2024-01-25T02:43:21;12.30;;;2.20;;
84840;SDS011;75088;53.114;18.040;2024-01-25T02:44:28;8.30;;;1.90;;
84840;SDS011;75088;53.114;18.040;2024-01-25T02:45:35;8.30;;;2.70;;
84840;SDS011;75088;53.114;18.040;2024-01-25T02:46:42;8.10;;;1.90;;
84840;SDS011;75088;53.114;18.040;2024-01-25T02:47:50;10.90;;;1.70;;
84840;SDS011;75088;53.114;18.040;2024-01-25T02:48:58;11.50;;;2.10;;
84840;SDS011;75088;53.114;18.040;2024-01-25T02:50:06;8.60;;;1.50;;
84840;SDS011;75088;53.114;18.040;2024-01-25T02:51:13;8.00;;;1.50;;
84840;SDS011;75088;53.114;18.040;2024-01-25T02:52:20;8.40;;;1.70;;
84840;SDS011;75088;53.114;18.040;2024-01-25T02:53:27;8.30;;;2.00;;
84840;SDS011;75088;53.114;18.040;2024-01-25T02:54:35;5.90;;;1.50;;
84840;SDS011;75088;53.114;18.040;2024-01-25T02:55:42;7.70;;;1.70;;
84840;SDS011;75088;53.114;18.040;2024-01-25T02:56:49;8.90;;;1.70;;
84840;SDS011;75088;53.114;18.040;2024-01-25T02:57:56;8.90;;;2.20;;
84840;SDS011;75088;53.114;18.040;2024-01-25T02:59:03;8.90;;;1.90;;
84840;SDS011;75088;53.114;18.040;2024-01-25T03:00:11;7.70;;;1.50;;
84840;SDS011;75088;53.114;18.040;2024-01-25T03:01:18;9.40;;;2.40;;
84840;SDS011;75088;53.114;18.040;2024-01-25T03:02:25;8.60;;;1.70;;
84840;SDS011;75088;53.114;18.040;2024-01-25T03:03:32;6.30;;;1.30;;
84840;SDS011;75088;53.114;18.040;2024-01-25T03:04:39;10.70;;;2.10;;
84840;SDS011;75088;53.114;18.040;2024-01-25T03:05:46;9.60;;;1.80;;
84840;SDS011;75088;53.114;18.040;2024-01-25T03:06:53;9.10;;;2.00;;
84840;SDS011;75088;53.114;18.040;2024-01-25T03:08:00;9.60;;;2.30;;
84840;SDS011;75088;53.114;18.040;2024-01-25T03:09:07;10.00;;;2.10;;
84840;SDS011;75088;53.114;18.040;2024-01-25T03:10:14;10.40;;;2.00;;
84840;SDS011;75088;53.114;18.040;2024-01-25T03:11:20;13.90;;;2.10;;
84840;SDS011;75088;53.114;18.040;2024-01-25T03:12:27;9.90;;;2.50;;
84840;SDS011;75088;53.114;18.040;2024-01-25T03:13:34;11.40;;;2.10;;
84840;SDS011;75088;53.114;18.040;2024-01-25T03:14:41;12.20;;;1.80;;
84840;SDS011;75088;53.114;18.040;2024-01-25T03:15:48;15.20;;;2.70;;
84840;SDS011;75088;53.114;18.040;2024-01-25T03:16:55;10.10;;;2.00;;
84840;SDS011;75088;53.114;18.040;2024-01-25T03:18:02;7.60;;;2.00;;
84840;SDS011;75088;53.114;18.040;2024-01-25T03:19:10;7.30;;;1.80;;
84840;SDS011;75088;53.114;18.040;2024-01-25T03:20:17;11.70;;;2.20;;
84840;SDS011;75088;53.114;18.040;2024-01-25T03:21:24;8.90;;;2.10;;
84840;SDS011;75088;53.114;18.040;2024-01-25T03:22:31;10.50;;;2.10;;
84840;SDS011;75088;53.114;18.040;2024-01-25T03:23:38;8.60;;;1.70;;
84840;SDS011;75088;53.114;18.040;2024-01-25T03:24:45;8.40;;;1.70;;
84840;SDS011;75088;53.114;18.040;2024-01-25T03:25:52;10.30;;;2.10;;
84840;SDS011;75088;53.114;18.040;2024-01-25T03:26:59;11.20;;;2.00;;
84840;SDS011;75088;53.114;18.040;2024-01-25T03:28:06;7.30;;;1.90;;
84840;SDS011;75088;53.114;18.040;2024-01-25T03:29:17;10.30;;;2.10;;
84840;SDS011;75088;53.114;18.040;2024-01-25T03:30:24;11.80;;;1.60;;
84840;SDS011;75088;53.114;18.040;2024-01-25T03:31:31;10.20;;;2.80;;
84840;SDS011;75088;53.114;18.040;2024-01-25T03:32:38;10.90;;;2.00;;
84840;SDS011;75088;53.114;18.040;2024-01-25T03:33:45;12.00;;;2.10;;
84840;SDS011;75088;53.114;18.040;2024-01-25T03:34:53;11.80;;;2.30;;
84840;SDS011;75088;53.114;18.040;2024-01-25T03:36:02;12.60;;;2.20;;
84840;SDS011;75088;53.114;18.040;2024-01-25T03:37:10;10.90;;;2.30;;
84840;SDS011;75088;53.114;18.040;2024-01-25T03:38:17;12.60;;;2.70;;
84840;SDS011;75088;53.114;18.040;2024-01-25T03:39:24;13.00;;;2.50;;
84840;SDS011;75088;53.114;18.040;2024-01-25T03:40:31;12.00;;;2.40;;
84840;SDS011;75088;53.114;18.040;2024-01-25T03:41:38;10.00;;;1.90;;
84840;SDS011;75088;53.114;18.040;2024-01-25T03:42:45;12.80;;;2.50;;
84840;SDS011;75088;53.114;18.040;2024-01-25T03:43:52;9.00;;;2.10;;
84840;SDS011;75088;53.114;18.040;2024-01-25T03:44:59;10.40;;;2.20;;
84840;SDS011;75088;53.114;18.040;2024-01-25T03:46:06;9.80;;;2.10;;
84840;SDS011;75088;53.114;18.040;2024-01-25T03:47:13;11.50;;;2.90;;
84840;SDS011;75088;53.114;18.040;2024-01-25T03:48:20;11.50;;;2.20;;
84840;SDS011;75088;53.114;18.040;2024-01-25T03:49:27;7.70;;;1.80;;
84840;SDS011;75088;53.114;18.040;2024-01-25T03:50:34;8.30;;;1.90;;
84840;SDS011;75088;53.114;18.040;2024-01-25T03:51:40;9.40;;;1.90;;
84840;SDS011;75088;53.114;18.040;2024-01-25T03:52:48;7.10;;;1.70;;
84840;SDS011;75088;53.114;18.040;2024-01-25T03:53:55;7.80;;;2.00;;
84840;SDS011;75088;53.114;18.040;2024-01-25T03:55:02;8.70;;;2.20;;
84840;SDS011;75088;53.114;18.040;2024-01-25T03:56:12;7.40;;;1.90;;
84840;SDS011;75088;53.114;18.040;2024-01-25T03:57:21;8.20;;;1.60;;
84840;SDS011;75088;53.114;18.040;2024-01-25T03:58:28;8.30;;;2.20;;
84840;SDS011;75088;53.114;18.040;2024-01-25T03:59:35;8.30;;;1.40;;
84840;SDS011;75088;53.114;18.040;2024-01-25T04:00:42;6.30;;;1.50;;
84840;SDS011;75088;53.114;18.040;2024-01-25T04:01:49;12.40;;;2.50;;
84840;SDS011;75088;53.114;18.040;2024-01-25T04:02:56;7.20;;;1.60;;
84840;SDS011;75088;53.114;18.040;2024-01-25T04:04:04;10.70;;;2.00;;
84840;SDS011;75088;53.114;18.040;2024-01-25T04:05:13;6.20;;;1.50;;
84840;SDS011;75088;53.114;18.040;2024-01-25T04:06:20;7.90;;;1.80;;
84840;SDS011;75088;53.114;18.040;2024-01-25T04:07:27;9.80;;;1.70;;
84840;SDS011;75088;53.114;18.040;2024-01-25T04:08:34;10.30;;;2.20;;
84840;SDS011;75088;53.114;18.040;2024-01-25T04:09:41;6.50;;;1.70;;
84840;SDS011;75088;53.114;18.040;2024-01-25T04:10:48;5.30;;;1.60;;
84840;SDS011;75088;53.114;18.040;2024-01-25T04:11:55;6.90;;;1.60;;
84840;SDS011;75088;53.114;18.040;2024-01-25T04:13:02;8.80;;;1.80;;
84840;SDS011;75088;53.114;18.040;2024-01-25T04:14:10;6.00;;;1.60;;
84840;SDS011;75088;53.114;18.040;2024-01-25T04:15:18;7.50;;;1.50;;
84840;SDS011;75088;53.114;18.040;2024-01-25T04:16:25;7.20;;;1.40;;
84840;SDS011;75088;53.114;18.040;2024-01-25T04:17:32;6.60;;;1.50;;
84840;SDS011;75088;53.114;18.040;2024-01-25T04:18:39;6.50;;;1.40;;
84840;SDS011;75088;53.114;18.040;2024-01-25T04:19:46;6.90;;;1.60;;
84840;SDS011;75088;53.114;18.040;2024-01-25T04:20:53;6.90;;;1.70;;
84840;SDS011;75088;53.114;18.040;2024-01-25T04:22:00;6.10;;;1.90;;
84840;SDS011;75088;53.114;18.040;2024-01-25T04:23:07;8.00;;;2.00;;
84840;SDS011;75088;53.114;18.040;2024-01-25T04:24:14;7.00;;;1.90;;
84840;SDS011;75088;53.114;18.040;2024-01-25T04:25:21;6.70;;;1.60;;
84840;SDS011;75088;53.114;18.040;2024-01-25T04:26:27;6.80;;;1.80;;
84840;SDS011;75088;53.114;18.040;2024-01-25T04:27:36;7.30;;;1.50;;
84840;SDS011;75088;53.114;18.040;2024-01-25T04:28:43;7.20;;;1.70;;
84840;SDS011;75088;53.114;18.040;2024-01-25T04:29:50;6.70;;;1.30;;
84840;SDS011;75088;53.114;18.040;2024-01-25T04:30:58;6.10;;;1.40;;
84840;SDS011;75088;53.114;18.040;2024-01-25T04:32:05;6.60;;;1.40;;
84840;SDS011;75088;53.114;18.040;2024-01-25T04:33:12;9.40;;;1.50;;
84840;SDS011;75088;53.114;18.040;2024-01-25T04:34:19;5.50;;;1.60;;
84840;SDS011;75088;53.114;18.040;2024-01-25T04:35:28;8.40;;;1.90;;
84840;SDS011;75088;53.114;18.040;2024-01-25T04:36:35;10.10;;;1.70;;
84840;SDS011;75088;53.114;18.040;2024-01-25T04:37:42;8.10;;;1.40;;
84840;SDS011;75088;53.114;18.040;2024-01-25T04:38:49;5.60;;;1.30;;
84840;SDS011;75088;53.114;18.040;2024-01-25T04:39:56;6.20;;;1.80;;
84840;SDS011;75088;53.114;18.040;2024-01-25T04:41:03;5.90;;;1.80;;
84840;SDS011;75088;53.114;18.040;2024-01-25T04:42:10;4.30;;;1.40;;
84840;SDS011;75088;53.114;18.040;2024-01-25T04:43:17;6.40;;;1.20;;
84840;SDS011;75088;53.114;18.040;2024-01-25T04:44:24;5.30;;;1.50;;
84840;SDS011;75088;53.114;18.040;2024-01-25T04:45:31;9.00;;;1.40;;
84840;SDS011;75088;53.114;18.040;2024-01-25T04:46:38;7.30;;;1.40;;
84840;SDS011;75088;53.114;18.040;2024-01-25T04:47:47;7.60;;;1.40;;
84840;SDS011;75088;53.114;18.040;2024-01-25T04:48:54;7.00;;;1.90;;
84840;SDS011;75088;53.114;18.040;2024-01-25T04:50:01;6.20;;;1.40;;
84840;SDS011;75088;53.114;18.040;2024-01-25T04:51:08;8.50;;;1.90;;
84840;SDS011;75088;53.114;18.040;2024-01-25T04:52:19;5.30;;;1.60;;
84840;SDS011;75088;53.114;18.040;2024-01-25T04:53:26;6.40;;;1.50;;
84840;SDS011;75088;53.114;18.040;2024-01-25T04:54:33;4.40;;;1.10;;
84840;SDS011;75088;53.114;18.040;2024-01-25T04:55:40;6.60;;;1.60;;
84840;SDS011;75088;53.114;18.040;2024-01-25T04:56:48;6.10;;;1.50;;
84840;SDS011;75088;53.114;18.040;2024-01-25T04:57:54;5.60;;;1.70;;
84840;SDS011;75088;53.114;18.040;2024-01-25T04:59:01;5.60;;;1.20;;
84840;SDS011;75088;53.114;18.040;2024-01-25T05:00:09;5.60;;;1.50;;
84840;SDS011;75088;53.114;18.040;2024-01-25T05:01:17;5.00;;;1.70;;
84840;SDS011;75088;53.114;18.040;2024-01-25T05:02:24;3.90;;;1.30;;
84840;SDS011;75088;53.114;18.040;2024-01-25T05:03:31;4.80;;;1.30;;
84840;SDS011;75088;53.114;18.040;2024-01-25T05:04:38;4.00;;;1.30;;
84840;SDS011;75088;53.114;18.040;2024-01-25T05:05:45;4.80;;;1.40;;
84840;SDS011;75088;53.114;18.040;2024-01-25T05:06:52;5.10;;;1.30;;
84840;SDS011;75088;53.114;18.040;2024-01-25T05:07:59;5.60;;;1.40;;
84840;SDS011;75088;53.114;18.040;2024-01-25T05:09:06;6.30;;;1.70;;
84840;SDS011;75088;53.114;18.040;2024-01-25T05:10:13;3.90;;;1.20;;
84840;SDS011;75088;53.114;18.040;2024-01-25T05:11:20;5.90;;;1.70;;
84840;SDS011;75088;53.114;18.040;2024-01-25T05:12:27;3.50;;;1.30;;
84840;SDS011;75088;53.114;18.040;2024-01-25T05:13:34;5.10;;;1.10;;
84840;SDS011;75088;53.114;18.040;2024-01-25T05:14:41;5.40;;;1.50;;
84840;SDS011;75088;53.114;18.040;2024-01-25T05:15:48;4.10;;;1.20;;
84840;SDS011;75088;53.114;18.040;2024-01-25T05:16:55;3.50;;;0.90;;
84840;SDS011;75088;53.114;18.040;2024-01-25T05:18:02;3.90;;;1.00;;
84840;SDS011;75088;53.114;18.040;2024-01-25T05:19:10;2.80;;;0.90;;
84840;SDS011;75088;53.114;18.040;2024-01-25T05:20:17;5.60;;;1.30;;
84840;SDS011;75088;53.114;18.040;2024-01-25T05:21:24;7.10;;;2.70;;
84840;SDS011;75088;53.114;18.040;2024-01-25T05:22:30;4.30;;;1.50;;
84840;SDS011;75088;53.114;18.040;2024-01-25T05:23:44;3.40;;;1.00;;
84840;SDS011;75088;53.114;18.040;2024-01-25T05:24:51;4.70;;;1.10;;
84840;SDS011;75088;53.114;18.040;2024-01-25T05:25:58;2.70;;;1.00;;
84840;SDS011;75088;53.114;18.040;2024-01-25T05:27:05;4.10;;;1.40;;
84840;SDS011;75088;53.114;18.040;2024-01-25T05:28:13;2.80;;;0.80;;
84840;SDS011;75088;53.114;18.040;2024-01-25T05:29:19;4.20;;;1.10;;
84840;SDS011;75088;53.114;18.040;2024-01-25T05:30:26;3.40;;;1.10;;
84840;SDS011;75088;53.114;18.040;2024-01-25T05:31:33;4.10;;;0.90;;
84840;SDS011;75088;53.114;18.040;2024-01-25T05:32:40;4.70;;;1.40;;
84840;SDS011;75088;53.114;18.040;2024-01-25T05:33:48;4.70;;;1.00;;
84840;SDS011;75088;53.114;18.040;2024-01-25T05:34:55;5.10;;;1.30;;
84840;SDS011;75088;53.114;18.040;2024-01-25T05:36:02;3.20;;;0.90;;
84840;SDS011;75088;53.114;18.040;2024-01-25T05:37:09;4.90;;;1.30;;
84840;SDS011;75088;53.114;18.040;2024-01-25T05:38:16;5.30;;;1.80;;
84840;SDS011;75088;53.114;18.040;2024-01-25T05:39:23;4.40;;;1.50;;
84840;SDS011;75088;53.114;18.040;2024-01-25T05:40:30;4.20;;;1.50;;
84840;SDS011;75088;53.114;18.040;2024-01-25T05:41:37;5.00;;;1.20;;
84840;SDS011;75088;53.114;18.040;2024-01-25T05:42:44;5.00;;;1.50;;
84840;SDS011;75088;53.114;18.040;2024-01-25T05:43:51;5.50;;;2.00;;
84840;SDS011;75088;53.114;18.040;2024-01-25T05:44:58;5.80;;;2.50;;
84840;SDS011;75088;53.114;18.040;2024-01-25T05:46:05;6.50;;;3.00;;
84840;SDS011;75088;53.114;18.040;2024-01-25T05:47:13;7.00;;;2.70;;
84840;SDS011;75088;53.114;18.040;2024-01-25T05:48:20;6.00;;;1.50;;
84840;SDS011;75088;53.114;18.040;2024-01-25T05:49:27;2.30;;;1.00;;
84840;SDS011;75088;53.114;18.040;2024-01-25T05:50:34;3.60;;;1.50;;
84840;SDS011;75088;53.114;18.040;2024-01-25T05:51:41;5.10;;;1.80;;
84840;SDS011;75088;53.114;18.040;2024-01-25T05:52:48;5.30;;;1.20;;
84840;SDS011;75088;53.114;18.040;2024-01-25T05:53:55;4.40;;;1.40;;
84840;SDS011;75088;53.114;18.040;2024-01-25T05:55:02;4.00;;;1.30;;
84840;SDS011;75088;53.114;18.040;2024-01-25T05:56:10;3.40;;;1.00;;
84840;SDS011;75088;53.114;18.040;2024-01-25T05:57:17;6.60;;;3.10;;
84840;SDS011;75088;53.114;18.040;2024-01-25T05:58:24;6.90;;;3.00;;
84840;SDS011;75088;53.114;18.040;2024-01-25T05:59:31;4.70;;;2.50;;
84840;SDS011;75088;53.114;18.040;2024-01-25T06:00:38;3.90;;;1.90;;
84840;SDS011;75088;53.114;18.040;2024-01-25T06:01:45;3.60;;;1.70;;
84840;SDS011;75088;53.114;18.040;2024-01-25T06:02:52;3.50;;;1.30;;
84840;SDS011;75088;53.114;18.040;2024-01-25T06:03:59;2.30;;;1.10;;
84840;SDS011;75088;53.114;18.040;2024-01-25T06:05:06;4.30;;;1.40;;
84840;SDS011;75088;53.114;18.040;2024-01-25T06:06:13;3.20;;;1.30;;
84840;SDS011;75088;53.114;18.040;2024-01-25T06:09:15;3.50;;;1.30;;
84840;SDS011;75088;53.114;18.040;2024-01-25T06:10:22;2.30;;;1.00;;
84840;SDS011;75088;53.114;18.040;2024-01-25T06:11:29;2.90;;;1.20;;
84840;SDS011;75088;53.114;18.040;2024-01-25T06:12:37;3.80;;;1.10;;
84840;SDS011;75088;53.114;18.040;2024-01-25T06:13:44;4.70;;;1.60;;
84840;SDS011;75088;53.114;18.040;2024-01-25T06:14:51;3.30;;;1.50;;
84840;SDS011;75088;53.114;18.040;2024-01-25T06:15:58;1.90;;;0.80;;
84840;SDS011;75088;53.114;18.040;2024-01-25T06:17:05;3.30;;;1.30;;
84840;SDS011;75088;53.114;18.040;2024-01-25T06:18:12;3.40;;;1.00;;
84840;SDS011;75088;53.114;18.040;2024-01-25T06:19:19;3.20;;;1.80;;
84840;SDS011;75088;53.114;18.040;2024-01-25T06:20:26;3.20;;;0.90;;
84840;SDS011;75088;53.114;18.040;2024-01-25T06:21:33;2.90;;;1.10;;
84840;SDS011;75088;53.114;18.040;2024-01-25T06:22:41;4.40;;;1.30;;
84840;SDS011;75088;53.114;18.040;2024-01-25T06:23:48;3.30;;;1.90;;
84840;SDS011;75088;53.114;18.040;2024-01-25T06:24:55;2.70;;;1.00;;
84840;SDS011;75088;53.114;18.040;2024-01-25T06:26:02;3.90;;;1.70;;
84840;SDS011;75088;53.114;18.040;2024-01-25T06:27:09;3.70;;;2.00;;
84840;SDS011;75088;53.114;18.040;2024-01-25T06:28:16;3.20;;;1.60;;
84840;SDS011;75088;53.114;18.040;2024-01-25T06:29:23;4.00;;;1.40;;
84840;SDS011;75088;53.114;18.040;2024-01-25T06:30:31;3.20;;;0.90;;
84840;SDS011;75088;53.114;18.040;2024-01-25T06:31:41;2.70;;;0.90;;
84840;SDS011;75088;53.114;18.040;2024-01-25T06:32:48;4.30;;;1.30;;
84840;SDS011;75088;53.114;18.040;2024-01-25T06:33:55;3.00;;;0.90;;
84840;SDS011;75088;53.114;18.040;2024-01-25T06:35:02;2.30;;;0.90;;
84840;SDS011;75088;53.114;18.040;2024-01-25T06:36:10;3.40;;;1.30;;
84840;SDS011;75088;53.114;18.040;2024-01-25T06:37:18;3.10;;;1.00;;
84840;SDS011;75088;53.114;18.040;2024-01-25T06:38:25;6.20;;;1.80;;
84840;SDS011;75088;53.114;18.040;2024-01-25T06:39:32;7.80;;;2.70;;
84840;SDS011;75088;53.114;18.040;2024-01-25T06:40:39;3.30;;;1.10;;